Impacts TAF Board INFO
FOR SITUATIONAL AWARENESS. NOT TO BE USED FOR FLIGHT PLANNING PURPOSES.
IDs:

KIAD - Washington/Dulles In, VA, US

Issued at 2323 UTC 16 Dec 2017
Updated at 0413 UTC 17 Dec 2017
Potential Impact None Slight Moderate High
Time<<18/05Z 18/06Z 18/07Z 18/08Z 18/09Z 18/10Z 18/11Z 18/12Z 18/13Z 18/14Z 18/15Z 18/16Z 18/17Z
Type PRVL
VIS >6
CIG 120
Cover BKN
FltCat VFR
WX --
WDir 160
WSpd 5
WGst --

Raw TAF
KIAD 162323Z 1700/1806 VRB03KT P6SM FEW250
  FM171700 16005KT P6SM BKN120


METAR Board
Radar Display
Forecast Discussion

FOR SITUATIONAL AWARENESS. NOT TO BE USED FOR FLIGHT PLANNING PURPOSES.